createdAt,value
2018-07-19T00:00:53.061Z,937.88
2018-07-19T00:01:52.954Z,937.88
2018-07-19T00:02:52.969Z,937.86
2018-07-19T00:03:53.007Z,937.88
2018-07-19T00:04:53.021Z,937.86
2018-07-19T00:05:53.116Z,937.88
2018-07-19T00:06:53.052Z,937.89
2018-07-19T00:07:53.063Z,937.89
2018-07-19T00:08:53.067Z,937.87
2018-07-19T00:09:53.103Z,937.88
2018-07-19T00:10:53.192Z,937.89
2018-07-19T00:11:53.126Z,937.90
2018-07-19T00:12:53.139Z,937.91
2018-07-19T00:13:53.157Z,937.95
2018-07-19T00:14:53.173Z,937.96
2018-07-19T00:15:53.286Z,937.94
2018-07-19T00:16:53.211Z,937.93
2018-07-19T00:17:53.224Z,937.92
2018-07-19T00:18:53.258Z,937.92
2018-07-19T00:19:53.246Z,937.94
2018-07-19T00:20:53.367Z,937.95
2018-07-19T00:21:53.280Z,937.95
2018-07-19T00:22:53.296Z,937.93
2018-07-19T00:23:53.289Z,937.94
2018-07-19T00:24:53.325Z,937.96
2018-07-19T00:25:53.440Z,937.93
2018-07-19T00:26:53.355Z,937.92
2018-07-19T00:27:53.352Z,937.90
2018-07-19T00:28:53.382Z,937.92
2018-07-19T00:29:53.403Z,937.96
2018-07-19T00:30:53.520Z,937.97
2018-07-19T00:31:53.426Z,937.98
2018-07-19T00:32:53.450Z,937.98
2018-07-19T00:33:53.527Z,937.93
2018-07-19T00:34:53.462Z,937.95
2018-07-19T00:35:53.592Z,937.96
2018-07-19T00:36:53.511Z,937.95
2018-07-19T00:37:53.506Z,937.94
2018-07-19T00:38:53.539Z,937.97
2018-07-19T00:39:53.550Z,937.97
2018-07-19T00:40:53.717Z,937.98
2018-07-19T00:41:53.584Z,937.93
2018-07-19T00:42:53.596Z,937.97
2018-07-19T00:43:53.620Z,937.97
2018-07-19T00:44:53.626Z,937.97
2018-07-19T00:45:53.743Z,937.97
2018-07-19T00:46:53.657Z,938.00
2018-07-19T00:47:53.671Z,938.03
2018-07-19T00:48:53.687Z,938.01
2018-07-19T00:49:53.702Z,938.00
2018-07-19T00:50:53.869Z,937.99
2018-07-19T00:51:53.731Z,938.03
2018-07-19T00:52:53.729Z,938.03
2018-07-19T00:53:53.760Z,938.06
2018-07-19T00:54:53.783Z,938.05
2018-07-19T00:55:53.896Z,938.10
2018-07-19T00:56:53.845Z,938.10
2018-07-19T00:57:53.825Z,938.08
2018-07-19T00:58:53.840Z,938.13
2018-07-19T00:59:53.855Z,938.17
2018-07-19T01:00:53.952Z,938.10
2018-07-19T01:01:53.877Z,938.11
2018-07-19T01:02:53.893Z,938.12
2018-07-19T01:03:53.921Z,938.10
2018-07-19T01:04:53.926Z,938.10
2018-07-19T01:05:54.068Z,938.08
2018-07-19T01:06:53.955Z,938.07
2018-07-19T01:07:53.972Z,938.07
2018-07-19T01:08:53.971Z,938.13
2018-07-19T01:09:53.999Z,938.16
2018-07-19T01:10:54.012Z,938.14
2018-07-19T01:11:54.125Z,938.18
2018-07-19T01:12:54.046Z,938.21
2018-07-19T01:13:54.066Z,938.18
2018-07-19T01:14:54.059Z,938.18
2018-07-19T01:15:54.086Z,938.21
2018-07-19T01:16:54.252Z,938.24
2018-07-19T01:17:54.125Z,938.22
2018-07-19T01:18:54.131Z,938.24
2018-07-19T01:19:54.150Z,938.24
2018-07-19T01:20:54.160Z,938.24
2018-07-19T01:21:54.280Z,938.26
2018-07-19T01:22:54.189Z,938.25
2018-07-19T01:23:54.200Z,938.25
2018-07-19T01:24:54.224Z,938.24
2018-07-19T01:25:54.237Z,938.25
2018-07-19T01:26:54.348Z,938.23
2018-07-19T01:27:54.266Z,938.21
2018-07-19T01:28:54.278Z,938.20
2018-07-19T01:29:54.292Z,938.19
2018-07-19T01:30:54.310Z,938.19
2018-07-19T01:31:54.470Z,938.18
2018-07-19T01:32:54.336Z,938.19
2018-07-19T01:33:54.346Z,938.18
2018-07-19T01:34:54.367Z,938.21
2018-07-19T01:35:54.377Z,938.20
2018-07-19T01:36:54.544Z,938.21
2018-07-19T01:37:54.410Z,938.18
2018-07-19T01:38:54.417Z,938.20
2018-07-19T01:39:54.439Z,938.20
2018-07-19T01:40:54.451Z,938.23
2018-07-19T01:41:54.568Z,938.21
2018-07-19T01:42:54.480Z,938.25
2018-07-19T01:43:54.496Z,938.23
2018-07-19T01:44:54.509Z,938.23
2018-07-19T01:45:54.526Z,938.24
2018-07-19T01:46:54.632Z,938.27
2018-07-19T01:47:54.549Z,938.26
2018-07-19T01:48:54.547Z,938.28
2018-07-19T01:49:54.583Z,938.31
2018-07-19T01:50:54.598Z,938.31
2018-07-19T01:51:54.711Z,938.34
2018-07-19T01:52:54.632Z,938.35
2018-07-19T01:53:54.637Z,938.29
2018-07-19T01:54:54.637Z,938.28
2018-07-19T01:55:54.648Z,938.28
2018-07-19T01:56:54.779Z,938.28
2018-07-19T01:57:54.694Z,938.24
2018-07-19T01:58:54.692Z,938.24
2018-07-19T01:59:54.734Z,938.24
2018-07-19T02:00:54.739Z,938.23
2018-07-19T02:01:54.901Z,938.22
2018-07-19T02:02:54.768Z,938.21
2018-07-19T02:03:54.785Z,938.26
2018-07-19T02:04:54.796Z,938.21
2018-07-19T02:05:54.790Z,938.22
2018-07-19T02:06:54.961Z,938.22
2018-07-19T02:07:54.846Z,938.21
2018-07-19T02:08:54.863Z,938.20
2018-07-19T02:09:54.869Z,938.21
2018-07-19T02:10:54.863Z,938.18
2018-07-19T02:11:55.024Z,938.19
2018-07-19T02:12:54.918Z,938.19
2018-07-19T02:13:54.928Z,938.17
2018-07-19T02:14:54.943Z,938.16
2018-07-19T02:15:54.931Z,938.19
2018-07-19T02:16:54.953Z,938.17
2018-07-19T02:17:55.135Z,938.12
2018-07-19T02:18:54.997Z,938.17
2018-07-19T02:19:55.014Z,938.15
2018-07-19T02:20:55.024Z,938.10
2018-07-19T02:21:55.043Z,938.14
2018-07-19T02:22:55.148Z,938.12
2018-07-19T02:23:55.068Z,938.12
2018-07-19T02:24:55.083Z,938.09
2018-07-19T02:25:55.099Z,938.11
2018-07-19T02:26:55.107Z,938.10
2018-07-19T02:27:55.277Z,938.11
2018-07-19T02:28:55.143Z,938.07
2018-07-19T02:29:55.139Z,938.09
2018-07-19T02:30:55.175Z,938.10
2018-07-19T02:31:55.186Z,938.10
2018-07-19T02:32:55.351Z,938.05
2018-07-19T02:33:55.206Z,938.08
2018-07-19T02:34:55.224Z,938.09
2018-07-19T02:35:55.219Z,938.08
2018-07-19T02:36:55.251Z,938.12
2018-07-19T02:38:55.285Z,938.09
2018-07-19T02:39:55.292Z,938.07
2018-07-19T02:40:55.313Z,938.05
2018-07-19T02:41:55.305Z,938.06
2018-07-19T02:42:55.471Z,938.07
2018-07-19T02:43:55.426Z,938.07
2018-07-19T02:44:55.366Z,938.06
2018-07-19T02:45:55.375Z,938.02
2018-07-19T02:46:55.390Z,938.02
2018-07-19T02:47:55.505Z,938.01
2018-07-19T02:48:55.418Z,937.99
2018-07-19T02:49:55.438Z,937.97
2018-07-19T02:50:55.444Z,937.94
2018-07-19T02:51:55.450Z,937.99
2018-07-19T02:52:55.558Z,937.95
2018-07-19T02:53:55.493Z,937.91
2018-07-19T02:54:55.510Z,937.90
2018-07-19T02:55:55.518Z,937.89
2018-07-19T02:56:55.536Z,937.88
2018-07-19T02:57:55.646Z,937.87
2018-07-19T02:58:55.568Z,937.90
2018-07-19T02:59:55.575Z,937.88
2018-07-19T03:00:55.590Z,937.85
2018-07-19T03:01:55.600Z,937.83
2018-07-19T03:02:55.718Z,937.85
2018-07-19T03:03:55.627Z,937.82
2018-07-19T03:04:55.645Z,937.82
2018-07-19T03:05:55.657Z,937.80
2018-07-19T03:06:55.669Z,937.80
2018-07-19T03:07:55.764Z,937.81
2018-07-19T03:08:55.681Z,937.83
2018-07-19T03:09:55.710Z,937.83
2018-07-19T03:10:55.706Z,937.82
2018-07-19T03:11:55.740Z,937.83
2018-07-19T03:12:55.883Z,937.83
2018-07-19T03:13:55.764Z,937.80
2018-07-19T03:14:55.776Z,937.79
2018-07-19T03:15:55.800Z,937.82
2018-07-19T03:16:55.790Z,937.79
2018-07-19T03:17:55.971Z,937.78
2018-07-19T03:18:55.835Z,937.81
2018-07-19T03:19:55.852Z,937.78
2018-07-19T03:20:55.864Z,937.81
2018-07-19T03:21:55.877Z,937.84
2018-07-19T03:22:55.990Z,937.83
2018-07-19T03:23:55.900Z,937.86
2018-07-19T03:24:55.938Z,937.86
2018-07-19T03:25:55.936Z,937.88
2018-07-19T03:26:55.949Z,937.91
2018-07-19T03:27:56.104Z,937.90
2018-07-19T03:28:55.970Z,937.85
2018-07-19T03:29:55.984Z,937.85
2018-07-19T03:30:56.071Z,937.89
2018-07-19T03:31:56.020Z,937.89
2018-07-19T03:32:56.021Z,937.89
2018-07-19T03:33:56.189Z,937.86
2018-07-19T03:34:56.054Z,937.84
2018-07-19T03:35:56.064Z,937.88
2018-07-19T03:36:56.085Z,937.90
2018-07-19T03:37:56.098Z,937.85
2018-07-19T03:38:56.211Z,937.82
2018-07-19T03:39:56.131Z,937.84
2018-07-19T03:40:56.135Z,937.84
2018-07-19T03:41:56.151Z,937.82
2018-07-19T03:42:56.163Z,937.82
2018-07-19T03:43:56.276Z,937.83
2018-07-19T03:44:56.186Z,937.78
2018-07-19T03:45:56.204Z,937.80
2018-07-19T03:46:56.199Z,937.77
2018-07-19T03:47:56.227Z,937.76
2018-07-19T03:48:56.340Z,937.75
2018-07-19T03:49:56.258Z,937.72
2018-07-19T03:50:56.274Z,937.75
2018-07-19T03:51:56.283Z,937.75
2018-07-19T03:52:56.298Z,937.76
2018-07-19T03:53:56.414Z,937.70
2018-07-19T03:54:56.327Z,937.72
2018-07-19T03:55:56.337Z,937.70
2018-07-19T03:56:56.361Z,937.68
2018-07-19T03:57:56.365Z,937.66
2018-07-19T03:58:56.474Z,937.71
2018-07-19T03:59:56.373Z,937.68
2018-07-19T04:00:56.408Z,937.64
2018-07-19T04:01:56.456Z,937.63
2018-07-19T04:02:56.431Z,937.64
2018-07-19T04:03:56.544Z,937.59
2018-07-19T04:04:56.456Z,937.61
2018-07-19T04:05:56.467Z,937.59
2018-07-19T04:06:56.485Z,937.61
2018-07-19T04:07:56.478Z,937.60
2018-07-19T04:08:56.608Z,937.60
2018-07-19T04:09:56.531Z,937.60
2018-07-19T04:10:56.526Z,937.58
2018-07-19T04:11:56.552Z,937.58
2018-07-19T04:12:56.587Z,937.58
2018-07-19T04:13:56.678Z,937.61
2018-07-19T04:14:56.588Z,937.59
2018-07-19T04:15:56.590Z,937.57
2018-07-19T04:16:56.625Z,937.52
2018-07-19T04:17:56.636Z,937.52
2018-07-19T04:18:56.728Z,937.53
2018-07-19T04:19:56.661Z,937.52
2018-07-19T04:20:56.677Z,937.53
2018-07-19T04:21:56.689Z,937.50
2018-07-19T04:22:56.698Z,937.53
2018-07-19T04:23:56.821Z,937.54
2018-07-19T04:24:56.727Z,937.52
2018-07-19T04:25:56.743Z,937.54
2018-07-19T04:26:56.754Z,937.52
2018-07-19T04:27:56.762Z,937.49
2018-07-19T04:28:56.881Z,937.46
2018-07-19T04:29:56.792Z,937.48
2018-07-19T04:30:56.801Z,937.48
2018-07-19T04:31:56.814Z,937.49
2018-07-19T04:32:56.832Z,937.49
2018-07-19T04:33:56.945Z,937.49
2018-07-19T04:34:56.851Z,937.48
2018-07-19T04:35:56.866Z,937.49
2018-07-19T04:36:56.875Z,937.40
2018-07-19T04:37:56.898Z,937.43
2018-07-19T04:38:56.984Z,937.42
2018-07-19T04:39:56.919Z,937.40
2018-07-19T04:40:56.932Z,937.36
2018-07-19T04:41:56.944Z,937.35
2018-07-19T04:42:56.961Z,937.35
2018-07-19T04:43:56.966Z,937.33
2018-07-19T04:44:57.114Z,937.33
2018-07-19T04:45:57.000Z,937.30
2018-07-19T04:46:57.000Z,937.33
2018-07-19T04:47:57.027Z,937.30
2018-07-19T04:48:57.039Z,937.33
2018-07-19T04:49:57.154Z,937.32
2018-07-19T04:50:57.061Z,937.31
2018-07-19T04:51:57.056Z,937.32
2018-07-19T04:52:57.092Z,937.30
2018-07-19T04:53:57.104Z,937.31
2018-07-19T04:54:57.260Z,937.31
2018-07-19T04:55:57.111Z,937.29
2018-07-19T04:56:57.146Z,937.30
2018-07-19T04:57:57.137Z,937.26
2018-07-19T04:58:57.162Z,937.29
2018-07-19T04:59:57.281Z,937.22
2018-07-19T05:00:57.193Z,937.24
2018-07-19T05:01:57.203Z,937.23
2018-07-19T05:02:57.200Z,937.23
2018-07-19T05:03:57.229Z,937.25
2018-07-19T05:04:57.345Z,937.15
2018-07-19T05:05:57.255Z,937.15
2018-07-19T05:06:57.278Z,937.18
2018-07-19T05:07:57.280Z,937.17
2018-07-19T05:08:57.295Z,937.19
2018-07-19T05:09:57.402Z,937.18
2018-07-19T05:10:57.327Z,937.15
2018-07-19T05:11:57.312Z,937.12
2018-07-19T05:12:57.347Z,937.15
2018-07-19T05:13:57.377Z,937.18
2018-07-19T05:14:57.472Z,937.11
2018-07-19T05:15:57.385Z,937.13
2018-07-19T05:16:57.404Z,937.11
2018-07-19T05:17:57.410Z,937.10
2018-07-19T05:18:57.450Z,937.07
2018-07-19T05:19:57.535Z,937.10
2018-07-19T05:20:57.446Z,937.04
2018-07-19T05:21:57.461Z,937.03
2018-07-19T05:22:57.473Z,937.04
2018-07-19T05:23:57.486Z,937.03
2018-07-19T05:24:57.599Z,937.03
2018-07-19T05:25:57.508Z,937.03
2018-07-19T05:26:57.532Z,937.01
2018-07-19T05:27:57.550Z,936.99
2018-07-19T05:28:57.550Z,937.02
2018-07-19T05:29:57.664Z,937.01
2018-07-19T05:30:57.576Z,937.00
2018-07-19T05:31:57.593Z,937.00
2018-07-19T05:32:57.602Z,936.99
2018-07-19T05:33:57.610Z,937.00
2018-07-19T05:34:57.711Z,936.98
2018-07-19T05:35:57.624Z,936.98
2018-07-19T05:36:57.650Z,936.94
2018-07-19T05:37:57.660Z,936.91
2018-07-19T05:38:57.687Z,936.95
2018-07-19T05:39:57.840Z,936.95
2018-07-19T05:40:57.704Z,936.95
2018-07-19T05:41:57.770Z,936.98
2018-07-19T05:42:57.729Z,936.98
2018-07-19T05:43:57.745Z,936.96
2018-07-19T05:44:57.855Z,936.93
2018-07-19T05:45:57.766Z,936.93
2018-07-19T05:46:57.786Z,936.96
2018-07-19T05:47:57.792Z,936.96
2018-07-19T05:48:57.786Z,936.94
2018-07-19T05:49:57.918Z,936.95
2018-07-19T05:50:57.832Z,936.92
2018-07-19T05:51:57.843Z,936.97
2018-07-19T05:52:57.856Z,936.95
2018-07-19T05:53:57.865Z,936.95
2018-07-19T05:54:58.013Z,936.96
2018-07-19T05:55:57.898Z,936.97
2018-07-19T05:56:57.889Z,936.94
2018-07-19T05:57:57.909Z,936.95
2018-07-19T05:58:57.933Z,936.96
2018-07-19T05:59:57.928Z,936.95
2018-07-19T06:00:58.055Z,936.97
2018-07-19T06:01:57.975Z,936.97
2018-07-19T06:02:57.968Z,936.94
2018-07-19T06:03:57.997Z,936.94
2018-07-19T06:04:58.012Z,936.96
2018-07-19T06:05:58.175Z,936.95
2018-07-19T06:06:58.034Z,936.97
2018-07-19T06:07:58.032Z,936.97
2018-07-19T06:08:58.060Z,936.94
2018-07-19T06:09:58.076Z,936.99
2018-07-19T06:10:58.182Z,936.98
2018-07-19T06:11:58.097Z,936.97
2018-07-19T06:12:58.097Z,936.98
2018-07-19T06:13:58.124Z,936.99
2018-07-19T06:14:58.115Z,936.96
2018-07-19T06:15:58.346Z,936.96
2018-07-19T06:16:58.160Z,936.98
2018-07-19T06:17:58.199Z,936.96
2018-07-19T06:18:58.191Z,936.95
2018-07-19T06:19:58.204Z,936.95
2018-07-19T06:20:58.342Z,936.91
2018-07-19T06:21:58.207Z,936.95
2018-07-19T06:22:58.245Z,936.94
2018-07-19T06:23:58.251Z,936.96
2018-07-19T06:24:58.267Z,936.91
2018-07-19T06:25:58.373Z,936.92
2018-07-19T06:26:58.284Z,936.91
2018-07-19T06:27:58.300Z,936.94
2018-07-19T06:28:58.318Z,936.91
2018-07-19T06:29:58.330Z,936.93
2018-07-19T06:30:58.435Z,936.90
2018-07-19T06:31:58.339Z,936.90
2018-07-19T06:32:58.351Z,936.87
2018-07-19T06:33:58.383Z,936.85
2018-07-19T06:34:58.391Z,936.86
2018-07-19T06:35:58.499Z,936.88
2018-07-19T06:36:58.421Z,936.87
2018-07-19T06:37:58.429Z,936.86
2018-07-19T06:38:58.447Z,936.82
2018-07-19T06:39:58.455Z,936.82
2018-07-19T06:40:58.564Z,936.84
2018-07-19T06:41:58.529Z,936.85
2018-07-19T06:42:58.551Z,936.87
2018-07-19T06:43:58.553Z,936.86
2018-07-19T06:44:58.570Z,936.88
2018-07-19T06:45:58.734Z,936.84
2018-07-19T06:46:58.596Z,936.82
2018-07-19T06:47:58.610Z,936.83
2018-07-19T06:48:58.623Z,936.79
2018-07-19T06:49:58.634Z,936.75
2018-07-19T06:50:58.749Z,936.75
2018-07-19T06:51:58.659Z,936.73
2018-07-19T06:52:58.616Z,936.74
2018-07-19T06:53:58.635Z,936.72
2018-07-19T06:54:58.647Z,936.73
2018-07-19T06:55:58.803Z,936.75
2018-07-19T06:56:58.666Z,936.67
2018-07-19T06:57:58.680Z,936.68
2018-07-19T06:58:58.695Z,936.68
2018-07-19T06:59:58.689Z,936.71
2018-07-19T07:00:58.875Z,936.66
2018-07-19T07:01:58.723Z,936.71
2018-07-19T07:02:58.743Z,936.67
2018-07-19T07:03:58.738Z,936.70
2018-07-19T07:04:58.769Z,936.69
2018-07-19T07:05:58.873Z,936.67
2018-07-19T07:06:58.791Z,936.68
2018-07-19T07:07:58.805Z,936.70
2018-07-19T07:08:58.854Z,936.66
2018-07-19T07:09:58.824Z,936.67
2018-07-19T07:10:58.974Z,936.65
2018-07-19T07:11:58.858Z,936.67
2018-07-19T07:12:58.863Z,936.66
2018-07-19T07:13:58.881Z,936.67
2018-07-19T07:14:58.935Z,936.67
2018-07-19T07:15:58.901Z,936.71
2018-07-19T07:16:59.012Z,936.67
2018-07-19T07:17:58.909Z,936.64
2018-07-19T07:18:58.937Z,936.66
2018-07-19T07:19:58.952Z,936.65
2018-07-19T07:20:58.965Z,936.66
2018-07-19T07:21:59.074Z,936.64
2018-07-19T07:22:58.970Z,936.64
2018-07-19T07:23:59.002Z,936.65
2018-07-19T07:24:59.010Z,936.68
2018-07-19T07:25:59.028Z,936.65
2018-07-19T07:26:59.169Z,936.67
2018-07-19T07:27:59.052Z,936.69
2018-07-19T07:28:59.045Z,936.68
2018-07-19T07:29:59.073Z,936.69
2018-07-19T07:30:59.081Z,936.69
2018-07-19T07:31:59.197Z,936.68
2018-07-19T07:32:59.115Z,936.68
2018-07-19T07:33:59.155Z,936.67
2018-07-19T07:34:59.124Z,936.66
2018-07-19T07:35:59.142Z,936.68
2018-07-19T07:36:59.257Z,936.67
2018-07-19T07:37:59.174Z,936.67
2018-07-19T07:38:59.281Z,936.68
2018-07-19T07:39:59.190Z,936.68
2018-07-19T07:40:59.207Z,936.66
2018-07-19T07:41:59.223Z,936.69
2018-07-19T07:43:59.245Z,936.68
2018-07-19T07:44:59.235Z,936.64
2018-07-19T07:45:59.269Z,936.65
2018-07-19T07:46:59.359Z,936.64
2018-07-19T07:47:59.301Z,936.68
2018-07-19T07:48:59.303Z,936.69
2018-07-19T07:49:59.314Z,936.67
2018-07-19T07:50:59.320Z,936.73
2018-07-19T07:51:59.448Z,936.76
2018-07-19T07:52:59.358Z,936.72
2018-07-19T07:53:59.364Z,936.73
2018-07-19T07:54:59.386Z,936.69
2018-07-19T07:55:59.372Z,936.67
2018-07-19T07:56:59.497Z,936.72
2018-07-19T07:57:59.403Z,936.71
2018-07-19T07:58:59.426Z,936.68
2018-07-19T07:59:59.437Z,936.67
2018-07-19T08:00:59.430Z,936.66
2018-07-19T08:01:59.458Z,936.64
2018-07-19T08:02:59.474Z,936.62
2018-07-19T08:03:59.490Z,936.67
2018-07-19T08:04:59.486Z,936.66
2018-07-19T08:05:59.495Z,936.62
2018-07-19T08:06:59.606Z,936.65
2018-07-19T08:07:59.539Z,936.68
2018-07-19T08:08:59.609Z,936.72
2018-07-19T08:09:59.568Z,936.67
2018-07-19T08:10:59.570Z,936.68
2018-07-19T08:11:59.678Z,936.72
2018-07-19T08:12:59.596Z,936.71
2018-07-19T08:13:59.612Z,936.72
2018-07-19T08:14:59.619Z,936.67
2018-07-19T08:15:59.635Z,936.68
2018-07-19T08:16:59.789Z,936.67
2018-07-19T08:17:59.654Z,936.66
2018-07-19T08:18:59.664Z,936.65
2018-07-19T08:19:59.674Z,936.66
2018-07-19T08:20:59.693Z,936.64
2018-07-19T08:21:59.801Z,936.63
2018-07-19T08:22:59.699Z,936.65
2018-07-19T08:23:59.725Z,936.63
2018-07-19T08:24:59.740Z,936.63
2018-07-19T08:25:59.746Z,936.59
2018-07-19T08:26:59.859Z,936.61
2018-07-19T08:27:59.781Z,936.62
2018-07-19T08:28:59.832Z,936.60
2018-07-19T08:29:59.801Z,936.58
2018-07-19T08:30:59.809Z,936.61
2018-07-19T08:31:59.929Z,936.63
2018-07-19T08:32:59.811Z,936.64
2018-07-19T08:33:59.854Z,936.67
2018-07-19T08:34:59.859Z,936.65
2018-07-19T08:35:59.910Z,936.64
2018-07-19T08:36:59.984Z,936.65
2018-07-19T08:37:59.888Z,936.68
2018-07-19T08:38:59.884Z,936.68
2018-07-19T08:39:59.915Z,936.67
2018-07-19T08:40:59.929Z,936.69
2018-07-19T08:41:59.945Z,936.65
2018-07-19T08:43:00.107Z,936.70
2018-07-19T08:43:59.966Z,936.68
2018-07-19T08:44:59.983Z,936.66
2018-07-19T08:45:59.989Z,936.69
2018-07-19T08:47:00.000Z,936.73
2018-07-19T08:48:00.101Z,936.76
2018-07-19T08:49:00.062Z,936.74
2018-07-19T08:50:00.041Z,936.72
2018-07-19T08:51:00.046Z,936.75
2018-07-19T08:52:00.059Z,936.75
2018-07-19T08:53:00.169Z,936.74
2018-07-19T08:54:00.082Z,936.77
2018-07-19T08:55:00.079Z,936.82
2018-07-19T08:56:01.415Z,936.81
2018-07-19T08:57:00.118Z,936.86
2018-07-19T08:58:00.279Z,936.87
2018-07-19T08:59:00.139Z,936.87
2018-07-19T09:00:00.157Z,936.87
2018-07-19T09:01:00.165Z,936.86
2018-07-19T09:02:00.162Z,936.87
2018-07-19T09:03:00.289Z,936.88
2018-07-19T09:04:00.207Z,936.86
2018-07-19T09:05:00.212Z,936.90
2018-07-19T09:06:00.203Z,936.89
2018-07-19T09:07:00.235Z,936.88
2018-07-19T09:08:00.349Z,936.91
2018-07-19T09:09:00.262Z,936.94
2018-07-19T09:10:00.275Z,936.94
2018-07-19T09:11:00.284Z,936.95
2018-07-19T09:12:00.296Z,936.95
2018-07-19T09:13:00.434Z,936.94
2018-07-19T09:14:00.356Z,936.95
2018-07-19T09:15:00.308Z,936.93
2018-07-19T09:16:00.346Z,936.95
2018-07-19T09:17:00.334Z,936.92
2018-07-19T09:18:00.463Z,936.92
2018-07-19T09:19:00.376Z,936.99
2018-07-19T09:20:00.392Z,936.96
2018-07-19T09:21:00.397Z,936.98
2018-07-19T09:22:00.407Z,936.99
2018-07-19T09:23:00.528Z,937.04
2018-07-19T09:24:00.436Z,937.00
2018-07-19T09:25:00.426Z,937.01
2018-07-19T09:26:00.466Z,937.03
2018-07-19T09:27:00.472Z,937.01
2018-07-19T09:28:00.581Z,937.04
2018-07-19T09:29:00.494Z,937.06
2018-07-19T09:30:00.508Z,937.09
2018-07-19T09:31:00.504Z,937.09
2018-07-19T09:32:00.529Z,937.10
2018-07-19T09:33:00.691Z,937.13
2018-07-19T09:34:00.542Z,937.12
2018-07-19T09:35:00.578Z,937.09
2018-07-19T09:36:00.576Z,937.13
2018-07-19T09:37:00.574Z,937.11
2018-07-19T09:38:00.700Z,937.13
2018-07-19T09:39:00.609Z,937.17
2018-07-19T09:40:00.623Z,937.13
2018-07-19T09:41:00.618Z,937.14
2018-07-19T09:42:00.657Z,937.18
2018-07-19T09:43:00.809Z,937.17
2018-07-19T09:44:00.649Z,937.21
2018-07-19T09:45:00.689Z,937.24
2018-07-19T09:46:00.695Z,937.25
2018-07-19T09:47:00.691Z,937.20
2018-07-19T09:48:00.826Z,937.22
2018-07-19T09:49:00.727Z,937.27
2018-07-19T09:50:00.724Z,937.30
2018-07-19T09:51:00.763Z,937.28
2018-07-19T09:52:00.762Z,937.26
2018-07-19T09:53:00.878Z,937.25
2018-07-19T09:54:00.788Z,937.28
2018-07-19T09:55:00.783Z,937.29
2018-07-19T09:56:00.813Z,937.30
2018-07-19T09:57:01.068Z,937.27
2018-07-19T09:58:00.940Z,937.33
2018-07-19T09:59:00.844Z,937.30
2018-07-19T10:00:00.842Z,937.32
2018-07-19T10:01:00.873Z,937.31
2018-07-19T10:02:00.880Z,937.31
2018-07-19T10:03:00.895Z,937.34
2018-07-19T10:04:01.005Z,937.29
2018-07-19T10:05:00.927Z,937.29
2018-07-19T10:06:00.937Z,937.30
2018-07-19T10:07:00.944Z,937.28
2018-07-19T10:08:00.957Z,937.29
2018-07-19T10:09:01.065Z,937.33
2018-07-19T10:10:01.007Z,937.32
2018-07-19T10:11:00.984Z,937.29
2018-07-19T10:12:01.019Z,937.33
2018-07-19T10:13:01.016Z,937.32
2018-07-19T10:14:01.178Z,937.33
2018-07-19T10:15:01.036Z,937.35
2018-07-19T10:16:01.047Z,937.37
2018-07-19T10:17:01.059Z,937.46
2018-07-19T10:18:01.074Z,937.39
2018-07-19T10:19:01.187Z,937.41
2018-07-19T10:20:01.098Z,937.41
2018-07-19T10:21:01.104Z,937.41
2018-07-19T10:22:01.122Z,937.42
2018-07-19T10:23:01.139Z,937.42
2018-07-19T10:24:01.279Z,937.47
2018-07-19T10:25:01.162Z,937.45
2018-07-19T10:26:01.168Z,937.44
2018-07-19T10:27:01.183Z,937.44
2018-07-19T10:28:01.190Z,937.46
2018-07-19T10:29:01.307Z,937.48
2018-07-19T10:30:01.213Z,937.49
2018-07-19T10:31:01.230Z,937.53
2018-07-19T10:32:01.259Z,937.46
2018-07-19T10:33:01.260Z,937.47
2018-07-19T10:34:01.396Z,937.52
2018-07-19T10:35:01.280Z,937.52
2018-07-19T10:36:01.273Z,937.50
2018-07-19T10:37:01.301Z,937.54
2018-07-19T10:38:01.312Z,937.59
2018-07-19T10:39:01.426Z,937.59
2018-07-19T10:40:01.346Z,937.62
2018-07-19T10:41:01.328Z,937.66
2018-07-19T10:42:01.361Z,937.65
2018-07-19T10:43:01.405Z,937.68
2018-07-19T10:44:01.545Z,937.68
2018-07-19T10:45:01.379Z,937.70
2018-07-19T10:46:01.438Z,937.67
2018-07-19T10:47:01.427Z,937.67
2018-07-19T10:48:01.439Z,937.70
2018-07-19T10:49:01.555Z,937.69
2018-07-19T10:50:01.468Z,937.68
2018-07-19T10:51:01.458Z,937.73
2018-07-19T10:52:01.543Z,937.78
2018-07-19T10:53:01.498Z,937.82
2018-07-19T10:54:01.647Z,937.85
2018-07-19T10:55:01.528Z,937.89
2018-07-19T10:56:01.538Z,937.91
2018-07-19T10:57:01.556Z,937.89
2018-07-19T10:58:01.582Z,937.89
2018-07-19T10:59:01.732Z,937.89
2018-07-19T11:00:01.600Z,937.89
2018-07-19T11:01:01.611Z,937.88
2018-07-19T11:02:01.627Z,937.93
2018-07-19T11:03:01.641Z,937.93
2018-07-19T11:04:01.799Z,937.94
2018-07-19T11:05:01.667Z,937.99
2018-07-19T11:06:01.683Z,937.97
2018-07-19T11:07:01.671Z,937.98
2018-07-19T11:08:01.709Z,938.02
2018-07-19T11:09:01.833Z,938.03
2018-07-19T11:10:01.741Z,937.98
2018-07-19T11:11:01.752Z,938.01
2018-07-19T11:12:01.769Z,938.00
2018-07-19T11:13:01.785Z,938.00
2018-07-19T11:14:01.893Z,938.01
2018-07-19T11:15:01.817Z,938.03
2018-07-19T11:16:01.822Z,938.02
2018-07-19T11:17:01.842Z,938.05
2018-07-19T11:18:01.857Z,938.04
2018-07-19T11:19:01.873Z,938.11
2018-07-19T11:20:01.985Z,938.14
2018-07-19T11:21:01.900Z,938.16
2018-07-19T11:22:01.916Z,938.17
2018-07-19T11:23:01.937Z,938.13
2018-07-19T11:24:01.941Z,938.15
2018-07-19T11:25:02.115Z,938.19
2018-07-19T11:26:01.975Z,938.17
2018-07-19T11:27:01.969Z,938.21
2018-07-19T11:28:02.006Z,938.20
2018-07-19T11:29:02.004Z,938.24
2018-07-19T11:30:02.140Z,938.27
2018-07-19T11:31:02.052Z,938.26
2018-07-19T11:32:02.070Z,938.29
2018-07-19T11:33:02.085Z,938.27
2018-07-19T11:34:02.089Z,938.34
2018-07-19T11:35:02.219Z,938.34
2018-07-19T11:36:02.111Z,938.32
2018-07-19T11:37:02.128Z,938.35
2018-07-19T11:38:02.165Z,938.33
2018-07-19T11:39:02.162Z,938.35
2018-07-19T11:40:02.346Z,938.35
2018-07-19T11:41:02.209Z,938.40
2018-07-19T11:42:02.232Z,938.36
2018-07-19T11:43:02.248Z,938.35
2018-07-19T11:44:02.276Z,938.36
2018-07-19T11:45:02.428Z,938.42
2018-07-19T11:46:02.301Z,938.49
2018-07-19T11:47:02.293Z,938.42
2018-07-19T11:48:02.322Z,938.44
2018-07-19T11:49:02.344Z,938.46
2018-07-19T11:50:02.462Z,938.43
2018-07-19T11:51:02.381Z,938.45
2018-07-19T11:52:02.395Z,938.48
2018-07-19T11:53:02.399Z,938.50
2018-07-19T11:54:02.432Z,938.51
2018-07-19T11:55:02.448Z,938.51
2018-07-19T11:56:02.466Z,938.50
2018-07-19T11:57:02.478Z,938.54
2018-07-19T11:58:02.498Z,938.56
2018-07-19T11:59:02.507Z,938.58
2018-07-19T12:00:02.629Z,938.65
2018-07-19T12:01:02.534Z,938.63
2018-07-19T12:02:02.554Z,938.64
2018-07-19T12:03:02.592Z,938.60
2018-07-19T12:04:02.608Z,938.60
2018-07-19T12:05:02.728Z,938.59
2018-07-19T12:06:02.639Z,938.61
2018-07-19T12:07:02.644Z,938.55
2018-07-19T12:08:02.683Z,938.55
2018-07-19T12:09:02.698Z,938.57
2018-07-19T12:10:02.868Z,938.59
2018-07-19T12:11:02.728Z,938.56
2018-07-19T12:12:02.748Z,938.58
2018-07-19T12:13:02.771Z,938.59
2018-07-19T12:14:02.790Z,938.59
2018-07-19T12:15:02.908Z,938.64
2018-07-19T12:16:02.825Z,938.59
2018-07-19T12:17:02.848Z,938.63
2018-07-19T12:18:02.932Z,938.67
2018-07-19T12:19:02.884Z,938.68
2018-07-19T12:20:03.007Z,938.71
2018-07-19T12:21:02.896Z,938.72
2018-07-19T12:22:02.937Z,938.73
2018-07-19T12:23:02.964Z,938.75
2018-07-19T12:24:02.973Z,938.76
2018-07-19T12:25:03.100Z,938.73
2018-07-19T12:26:03.017Z,938.79
2018-07-19T12:27:03.034Z,938.84
2018-07-19T12:28:03.050Z,938.82
2018-07-19T12:29:03.074Z,938.77
2018-07-19T12:30:03.198Z,938.77
2018-07-19T12:31:03.110Z,938.77